sensor_id;sensor_type;location;lat;lon;timestamp;pressure;altitude;pressure_sealevel;temperature;humidity
73332;BME280;61560;33.718;73.040;2023-06-10T00:00:48;93515.78;;;30.26;47.66
73332;BME280;61560;33.718;73.040;2023-06-10T00:03:17;93517.13;;;30.25;47.34
73332;BME280;61560;33.718;73.040;2023-06-10T00:05:44;93519.78;;;30.23;47.62
73332;BME280;61560;33.718;73.040;2023-06-10T00:08:11;93530.66;;;30.27;47.58
73332;BME280;61560;33.718;73.040;2023-06-10T00:10:38;93532.72;;;30.26;47.51
73332;BME280;61560;33.718;73.040;2023-06-10T00:13:06;93526.38;;;30.18;47.32
73332;BME280;61560;33.718;73.040;2023-06-10T00:15:38;93532.19;;;30.20;47.33
73332;BME280;61560;33.718;73.040;2023-06-10T00:18:05;93537.28;;;30.29;47.63
73332;BME280;61560;33.718;73.040;2023-06-10T00:20:32;93536.13;;;30.32;47.93
73332;BME280;61560;33.718;73.040;2023-06-10T00:23:00;93535.91;;;30.38;48.30
73332;BME280;61560;33.718;73.040;2023-06-10T00:25:30;93546.06;;;30.41;48.38
73332;BME280;61560;33.718;73.040;2023-06-10T00:27:59;93552.66;;;30.43;49.08
73332;BME280;61560;33.718;73.040;2023-06-10T00:30:28;93555.47;;;30.43;49.19
73332;BME280;61560;33.718;73.040;2023-06-10T00:32:56;93556.97;;;30.44;49.47
73332;BME280;61560;33.718;73.040;2023-06-10T00:35:22;93555.84;;;30.47;49.55
73332;BME280;61560;33.718;73.040;2023-06-10T00:37:50;93565.63;;;30.46;49.95
73332;BME280;61560;33.718;73.040;2023-06-10T00:40:18;93563.72;;;30.49;50.08
73332;BME280;61560;33.718;73.040;2023-06-10T00:42:45;93567.84;;;30.55;49.79
73332;BME280;61560;33.718;73.040;2023-06-10T00:45:12;93566.69;;;30.58;49.80
73332;BME280;61560;33.718;73.040;2023-06-10T00:47:39;93572.13;;;30.64;49.61
73332;BME280;61560;33.718;73.040;2023-06-10T00:50:06;93567.22;;;30.64;49.71
73332;BME280;61560;33.718;73.040;2023-06-10T00:52:35;93574.22;;;30.63;50.12
73332;BME280;61560;33.718;73.040;2023-06-10T00:55:04;93571.91;;;30.69;49.80
73332;BME280;61560;33.718;73.040;2023-06-10T00:57:31;93575.84;;;30.74;49.89
73332;BME280;61560;33.718;73.040;2023-06-10T00:59:58;93576.19;;;30.78;50.11
73332;BME280;61560;33.718;73.040;2023-06-10T01:02:27;93580.69;;;30.81;49.39
73332;BME280;61560;33.718;73.040;2023-06-10T01:04:54;93589.00;;;30.79;49.42
73332;BME280;61560;33.718;73.040;2023-06-10T01:07:28;93590.09;;;30.84;49.29
73332;BME280;61560;33.718;73.040;2023-06-10T01:10:36;93591.00;;;30.94;49.03
73332;BME280;61560;33.718;73.040;2023-06-10T01:13:11;93593.22;;;31.03;48.81
73332;BME280;61560;33.718;73.040;2023-06-10T01:15:39;93596.34;;;31.14;48.89
73332;BME280;61560;33.718;73.040;2023-06-10T01:18:07;93593.63;;;31.24;48.36
73332;BME280;61560;33.718;73.040;2023-06-10T01:20:44;93600.28;;;31.43;47.37
73332;BME280;61560;33.718;73.040;2023-06-10T01:23:12;93597.34;;;31.59;47.33
73332;BME280;61560;33.718;73.040;2023-06-10T01:26:09;93590.44;;;31.86;46.56
73332;BME280;61560;33.718;73.040;2023-06-10T01:29:20;93602.06;;;32.15;45.90
73332;BME280;61560;33.718;73.040;2023-06-10T01:31:55;93605.81;;;32.35;44.95
73332;BME280;61560;33.718;73.040;2023-06-10T01:34:26;93603.06;;;32.61;44.36
73332;BME280;61560;33.718;73.040;2023-06-10T01:36:55;93611.44;;;32.86;44.95
73332;BME280;61560;33.718;73.040;2023-06-10T01:39:25;93621.09;;;33.00;44.14
73332;BME280;61560;33.718;73.040;2023-06-10T01:41:53;93619.41;;;33.24;43.83
73332;BME280;61560;33.718;73.040;2023-06-10T01:44:22;93625.69;;;33.58;43.58
73332;BME280;61560;33.718;73.040;2023-06-10T01:46:49;93626.56;;;33.97;42.30
73332;BME280;61560;33.718;73.040;2023-06-10T01:49:16;93635.31;;;34.28;41.98
73332;BME280;61560;33.718;73.040;2023-06-10T01:51:43;93627.09;;;34.51;41.29
73332;BME280;61560;33.718;73.040;2023-06-10T01:54:11;93635.47;;;34.78;41.54
73332;BME280;61560;33.718;73.040;2023-06-10T01:56:38;93639.81;;;35.07;40.38
73332;BME280;61560;33.718;73.040;2023-06-10T01:59:05;93641.06;;;35.35;39.02
73332;BME280;61560;33.718;73.040;2023-06-10T02:01:32;93637.00;;;35.48;38.50
73332;BME280;61560;33.718;73.040;2023-06-10T02:04:01;93637.28;;;35.61;38.03
73332;BME280;61560;33.718;73.040;2023-06-10T02:06:30;93642.88;;;35.80;37.84
73332;BME280;61560;33.718;73.040;2023-06-10T02:08:59;93643.56;;;36.00;37.24
73332;BME280;61560;33.718;73.040;2023-06-10T02:11:29;93638.94;;;36.16;37.40
73332;BME280;61560;33.718;73.040;2023-06-10T02:13:56;93650.38;;;36.37;37.05
73332;BME280;61560;33.718;73.040;2023-06-10T02:16:23;93646.63;;;36.56;36.73
73332;BME280;61560;33.718;73.040;2023-06-10T02:18:50;93651.44;;;36.74;36.37
73332;BME280;61560;33.718;73.040;2023-06-10T02:21:17;93653.94;;;37.01;36.75
73332;BME280;61560;33.718;73.040;2023-06-10T02:23:44;93656.47;;;37.18;36.55
73332;BME280;61560;33.718;73.040;2023-06-10T02:26:11;93649.44;;;37.31;36.22
73332;BME280;61560;33.718;73.040;2023-06-10T02:28:40;93654.34;;;37.51;36.04
73332;BME280;61560;33.718;73.040;2023-06-10T02:31:09;93660.31;;;37.67;35.19
73332;BME280;61560;33.718;73.040;2023-06-10T02:33:37;93670.66;;;37.72;34.87
73332;BME280;61560;33.718;73.040;2023-06-10T02:36:07;93673.53;;;37.84;35.07
73332;BME280;61560;33.718;73.040;2023-06-10T02:38:34;93672.94;;;37.97;34.95
73332;BME280;61560;33.718;73.040;2023-06-10T02:41:01;93674.06;;;38.03;34.53
73332;BME280;61560;33.718;73.040;2023-06-10T02:43:28;93672.16;;;38.08;33.83
73332;BME280;61560;33.718;73.040;2023-06-10T02:45:56;93681.03;;;38.23;33.35
73332;BME280;61560;33.718;73.040;2023-06-10T02:48:27;93675.16;;;38.21;33.84
73332;BME280;61560;33.718;73.040;2023-06-10T02:50:58;93682.88;;;38.42;33.97
73332;BME280;61560;33.718;73.040;2023-06-10T02:53:38;93679.88;;;38.51;34.07
73332;BME280;61560;33.718;73.040;2023-06-10T02:56:09;93680.25;;;38.69;33.50
73332;BME280;61560;33.718;73.040;2023-06-10T02:58:38;93684.94;;;38.76;32.82
73332;BME280;61560;33.718;73.040;2023-06-10T03:01:06;93687.38;;;38.93;33.13
73332;BME280;61560;33.718;73.040;2023-06-10T03:03:42;93685.19;;;39.17;32.24
73332;BME280;61560;33.718;73.040;2023-06-10T03:06:12;93681.75;;;39.32;31.83
73332;BME280;61560;33.718;73.040;2023-06-10T03:08:40;93688.34;;;39.35;31.24
73332;BME280;61560;33.718;73.040;2023-06-10T03:11:12;93684.19;;;39.38;30.30
73332;BME280;61560;33.718;73.040;2023-06-10T03:13:40;93689.78;;;39.47;30.24
73332;BME280;61560;33.718;73.040;2023-06-10T03:16:18;93684.78;;;39.73;29.80
73332;BME280;61560;33.718;73.040;2023-06-10T03:18:46;93683.53;;;39.89;29.66
73332;BME280;61560;33.718;73.040;2023-06-10T03:21:13;93684.53;;;40.08;29.73
73332;BME280;61560;33.718;73.040;2023-06-10T03:23:41;93686.47;;;40.30;29.36
73332;BME280;61560;33.718;73.040;2023-06-10T03:26:07;93684.38;;;40.44;28.29
73332;BME280;61560;33.718;73.040;2023-06-10T03:28:39;93679.03;;;40.52;28.47
73332;BME280;61560;33.718;73.040;2023-06-10T03:31:08;93680.94;;;40.75;27.73
73332;BME280;61560;33.718;73.040;2023-06-10T03:33:48;93685.50;;;40.94;27.54
73332;BME280;61560;33.718;73.040;2023-06-10T03:36:16;93685.06;;;40.99;26.93
73332;BME280;61560;33.718;73.040;2023-06-10T03:38:43;93673.88;;;41.05;26.75
73332;BME280;61560;33.718;73.040;2023-06-10T03:41:10;93687.16;;;41.26;26.67
73332;BME280;61560;33.718;73.040;2023-06-10T03:43:40;93679.44;;;41.59;26.23
73332;BME280;61560;33.718;73.040;2023-06-10T03:46:08;93674.75;;;41.66;26.12
73332;BME280;61560;33.718;73.040;2023-06-10T03:48:35;93681.44;;;41.86;25.61
73332;BME280;61560;33.718;73.040;2023-06-10T03:51:03;93683.81;;;42.05;26.18
73332;BME280;61560;33.718;73.040;2023-06-10T03:53:30;93674.97;;;42.32;24.90
73332;BME280;61560;33.718;73.040;2023-06-10T03:55:57;93678.81;;;42.70;24.85
73332;BME280;61560;33.718;73.040;2023-06-10T03:58:26;93670.94;;;43.04;24.79
73332;BME280;61560;33.718;73.040;2023-06-10T04:00:53;93680.94;;;43.19;24.60
73332;BME280;61560;33.718;73.040;2023-06-10T04:03:29;93676.44;;;43.49;24.47
73332;BME280;61560;33.718;73.040;2023-06-10T04:05:56;93685.41;;;43.74;24.17
73332;BME280;61560;33.718;73.040;2023-06-10T04:08:26;93682.34;;;43.88;24.46
73332;BME280;61560;33.718;73.040;2023-06-10T04:10:54;93682.69;;;44.53;23.01
73332;BME280;61560;33.718;73.040;2023-06-10T04:13:21;93683.88;;;44.85;22.32
73332;BME280;61560;33.718;73.040;2023-06-10T04:15:53;93681.00;;;45.07;22.15
73332;BME280;61560;33.718;73.040;2023-06-10T04:18:21;93669.97;;;45.42;21.75
73332;BME280;61560;33.718;73.040;2023-06-10T04:20:49;93679.31;;;46.08;21.90
73332;BME280;61560;33.718;73.040;2023-06-10T04:23:17;93669.97;;;46.59;20.63
73332;BME280;61560;33.718;73.040;2023-06-10T04:25:46;93669.72;;;47.00;20.96
73332;BME280;61560;33.718;73.040;2023-06-10T04:28:14;93671.78;;;47.23;20.59
73332;BME280;61560;33.718;73.040;2023-06-10T04:30:41;93672.91;;;47.67;19.92
73332;BME280;61560;33.718;73.040;2023-06-10T04:33:09;93674.00;;;47.82;19.55
73332;BME280;61560;33.718;73.040;2023-06-10T04:35:37;93676.34;;;47.90;19.39
73332;BME280;61560;33.718;73.040;2023-06-10T04:38:06;93677.69;;;47.85;19.48
73332;BME280;61560;33.718;73.040;2023-06-10T04:40:33;93673.22;;;47.80;19.77
73332;BME280;61560;33.718;73.040;2023-06-10T04:43:01;93672.75;;;47.91;19.58
73332;BME280;61560;33.718;73.040;2023-06-10T04:45:28;93665.31;;;48.14;19.27
73332;BME280;61560;33.718;73.040;2023-06-10T04:47:56;93666.44;;;48.32;18.80
73332;BME280;61560;33.718;73.040;2023-06-10T04:50:26;93671.06;;;48.12;18.51
73332;BME280;61560;33.718;73.040;2023-06-10T04:52:54;93682.56;;;47.76;19.09
73332;BME280;61560;33.718;73.040;2023-06-10T04:55:23;93675.91;;;47.71;18.80
73332;BME280;61560;33.718;73.040;2023-06-10T04:57:51;93683.63;;;47.61;18.97
73332;BME280;61560;33.718;73.040;2023-06-10T05:00:18;93676.00;;;47.46;18.53
73332;BME280;61560;33.718;73.040;2023-06-10T05:02:45;93680.28;;;47.43;18.92
73332;BME280;61560;33.718;73.040;2023-06-10T05:05:17;93675.78;;;47.10;19.59
73332;BME280;61560;33.718;73.040;2023-06-10T05:07:44;93674.84;;;46.76;19.82
73332;BME280;61560;33.718;73.040;2023-06-10T05:10:11;93671.63;;;46.40;19.94
73332;BME280;61560;33.718;73.040;2023-06-10T05:12:41;93684.59;;;46.15;20.07
73332;BME280;61560;33.718;73.040;2023-06-10T05:15:08;93673.69;;;45.90;20.70
73332;BME280;61560;33.718;73.040;2023-06-10T05:17:35;93677.69;;;45.58;20.88
73332;BME280;61560;33.718;73.040;2023-06-10T05:20:03;93679.97;;;45.39;21.46
73332;BME280;61560;33.718;73.040;2023-06-10T05:22:30;93673.78;;;45.27;21.37
73332;BME280;61560;33.718;73.040;2023-06-10T05:24:57;93683.69;;;45.01;21.39
73332;BME280;61560;33.718;73.040;2023-06-10T05:27:24;93672.66;;;44.76;21.95
73332;BME280;61560;33.718;73.040;2023-06-10T05:29:52;93672.84;;;44.60;22.52
73332;BME280;61560;33.718;73.040;2023-06-10T05:32:19;93680.63;;;44.55;22.05
73332;BME280;61560;33.718;73.040;2023-06-10T05:34:49;93677.97;;;44.42;22.45
73332;BME280;61560;33.718;73.040;2023-06-10T05:37:15;93676.81;;;44.31;22.44
73332;BME280;61560;33.718;73.040;2023-06-10T05:39:42;93676.38;;;44.19;22.37
73332;BME280;61560;33.718;73.040;2023-06-10T05:42:09;93668.94;;;44.14;22.66
73332;BME280;61560;33.718;73.040;2023-06-10T05:44:36;93669.09;;;44.18;23.43
73332;BME280;61560;33.718;73.040;2023-06-10T05:47:04;93667.56;;;44.15;22.78
73332;BME280;61560;33.718;73.040;2023-06-10T05:49:31;93666.81;;;44.15;23.14
73332;BME280;61560;33.718;73.040;2023-06-10T05:51:58;93662.88;;;44.06;23.41
73332;BME280;61560;33.718;73.040;2023-06-10T05:54:26;93660.56;;;44.03;22.46
73332;BME280;61560;33.718;73.040;2023-06-10T05:56:55;93658.75;;;43.93;22.79
73332;BME280;61560;33.718;73.040;2023-06-10T05:59:22;93663.34;;;44.01;22.83
73332;BME280;61560;33.718;73.040;2023-06-10T06:01:49;93656.16;;;44.19;22.83
73332;BME280;61560;33.718;73.040;2023-06-10T06:04:17;93655.25;;;44.15;23.01
73332;BME280;61560;33.718;73.040;2023-06-10T06:06:43;93652.00;;;44.24;22.61
73332;BME280;61560;33.718;73.040;2023-06-10T06:09:11;93658.13;;;44.15;22.06
73332;BME280;61560;33.718;73.040;2023-06-10T06:11:37;93649.81;;;44.05;22.02
73332;BME280;61560;33.718;73.040;2023-06-10T06:14:04;93660.97;;;43.95;21.81
73332;BME280;61560;33.718;73.040;2023-06-10T06:16:32;93650.78;;;43.74;22.27
73332;BME280;61560;33.718;73.040;2023-06-10T06:18:59;93647.25;;;43.76;22.48
73332;BME280;61560;33.718;73.040;2023-06-10T06:21:29;93641.47;;;43.76;22.98
73332;BME280;61560;33.718;73.040;2023-06-10T06:23:56;93635.63;;;43.74;23.29
73332;BME280;61560;33.718;73.040;2023-06-10T06:26:24;93637.84;;;43.75;22.87
73332;BME280;61560;33.718;73.040;2023-06-10T06:28:52;93639.38;;;43.78;23.03
73332;BME280;61560;33.718;73.040;2023-06-10T06:31:19;93627.97;;;43.63;23.21
73332;BME280;61560;33.718;73.040;2023-06-10T06:33:46;93631.59;;;43.63;23.62
73332;BME280;61560;33.718;73.040;2023-06-10T06:36:13;93627.78;;;43.59;23.82
73332;BME280;61560;33.718;73.040;2023-06-10T06:38:41;93623.44;;;43.40;23.47
73332;BME280;61560;33.718;73.040;2023-06-10T06:41:11;93622.84;;;43.61;23.43
73332;BME280;61560;33.718;73.040;2023-06-10T06:43:40;93619.06;;;43.22;23.84
73332;BME280;61560;33.718;73.040;2023-06-10T06:46:26;93626.66;;;43.31;24.33
73332;BME280;61560;33.718;73.040;2023-06-10T06:48:55;93628.81;;;43.30;24.42
73332;BME280;61560;33.718;73.040;2023-06-10T06:51:22;93622.53;;;43.18;24.28
73332;BME280;61560;33.718;73.040;2023-06-10T06:53:49;93619.56;;;43.16;24.89
73332;BME280;61560;33.718;73.040;2023-06-10T06:56:17;93618.22;;;43.19;24.49
73332;BME280;61560;33.718;73.040;2023-06-10T06:58:44;93616.75;;;43.18;24.88
73332;BME280;61560;33.718;73.040;2023-06-10T07:01:11;93618.06;;;43.15;24.91
73332;BME280;61560;33.718;73.040;2023-06-10T07:03:38;93608.69;;;43.14;25.05
73332;BME280;61560;33.718;73.040;2023-06-10T07:06:05;93609.50;;;42.99;24.98
73332;BME280;61560;33.718;73.040;2023-06-10T07:08:35;93597.66;;;42.76;25.39
73332;BME280;61560;33.718;73.040;2023-06-10T07:11:02;93599.81;;;42.75;24.91
73332;BME280;61560;33.718;73.040;2023-06-10T07:13:29;93600.63;;;42.60;25.03
73332;BME280;61560;33.718;73.040;2023-06-10T07:15:56;93592.13;;;42.47;25.96
73332;BME280;61560;33.718;73.040;2023-06-10T07:18:23;93594.91;;;42.45;26.12
73332;BME280;61560;33.718;73.040;2023-06-10T07:20:50;93596.47;;;42.48;26.15
73332;BME280;61560;33.718;73.040;2023-06-10T07:23:17;93584.66;;;42.57;25.44
73332;BME280;61560;33.718;73.040;2023-06-10T07:25:44;93575.19;;;42.55;25.61
73332;BME280;61560;33.718;73.040;2023-06-10T07:28:11;93578.81;;;42.55;25.83
73332;BME280;61560;33.718;73.040;2023-06-10T07:30:38;93571.31;;;42.48;25.75
73332;BME280;61560;33.718;73.040;2023-06-10T07:33:05;93568.84;;;42.58;26.08
73332;BME280;61560;33.718;73.040;2023-06-10T07:35:34;93574.94;;;42.66;25.15
73332;BME280;61560;33.718;73.040;2023-06-10T07:38:01;93558.41;;;42.67;24.96
73332;BME280;61560;33.718;73.040;2023-06-10T07:40:28;93559.41;;;42.73;25.39
73332;BME280;61560;33.718;73.040;2023-06-10T07:42:55;93559.00;;;42.81;25.31
73332;BME280;61560;33.718;73.040;2023-06-10T07:45:22;93553.22;;;42.81;25.16
73332;BME280;61560;33.718;73.040;2023-06-10T07:47:49;93558.00;;;42.74;24.45
73332;BME280;61560;33.718;73.040;2023-06-10T07:50:16;93560.28;;;42.60;24.69
73332;BME280;61560;33.718;73.040;2023-06-10T07:52:43;93548.44;;;42.52;24.23
73332;BME280;61560;33.718;73.040;2023-06-10T07:55:13;93540.38;;;42.33;24.36
73332;BME280;61560;33.718;73.040;2023-06-10T07:57:40;93543.31;;;42.17;24.90
73332;BME280;61560;33.718;73.040;2023-06-10T08:00:08;93532.28;;;42.12;25.10
73332;BME280;61560;33.718;73.040;2023-06-10T08:02:41;93534.81;;;41.88;24.97
73332;BME280;61560;33.718;73.040;2023-06-10T08:05:09;93533.16;;;41.68;25.64
73332;BME280;61560;33.718;73.040;2023-06-10T08:07:39;93528.03;;;41.35;25.40
73332;BME280;61560;33.718;73.040;2023-06-10T08:10:07;93528.09;;;41.21;25.72
73332;BME280;61560;33.718;73.040;2023-06-10T08:12:34;93520.06;;;41.33;26.01
73332;BME280;61560;33.718;73.040;2023-06-10T08:15:02;93523.59;;;41.47;25.63
73332;BME280;61560;33.718;73.040;2023-06-10T08:17:33;93520.50;;;41.59;24.98
73332;BME280;61560;33.718;73.040;2023-06-10T08:20:00;93509.56;;;41.55;25.31
73332;BME280;61560;33.718;73.040;2023-06-10T08:22:28;93512.63;;;41.59;25.01
73332;BME280;61560;33.718;73.040;2023-06-10T08:24:55;93507.84;;;41.64;24.90
73332;BME280;61560;33.718;73.040;2023-06-10T08:27:23;93505.16;;;41.68;25.61
73332;BME280;61560;33.718;73.040;2023-06-10T08:29:50;93495.41;;;41.75;25.49
73332;BME280;61560;33.718;73.040;2023-06-10T08:32:17;93492.41;;;41.89;25.00
73332;BME280;61560;33.718;73.040;2023-06-10T08:34:44;93491.06;;;41.92;25.02
73332;BME280;61560;33.718;73.040;2023-06-10T08:37:11;93485.69;;;42.00;25.13
73332;BME280;61560;33.718;73.040;2023-06-10T08:39:38;93474.19;;;42.00;24.93
73332;BME280;61560;33.718;73.040;2023-06-10T08:42:39;93462.38;;;41.94;24.75
73332;BME280;61560;33.718;73.040;2023-06-10T08:45:01;93459.06;;;41.99;24.66
73332;BME280;61560;33.718;73.040;2023-06-10T08:47:30;93450.00;;;41.89;25.11
73332;BME280;61560;33.718;73.040;2023-06-10T08:50:05;93441.97;;;41.70;24.39
73332;BME280;61560;33.718;73.040;2023-06-10T08:52:36;93450.69;;;41.56;25.79
73332;BME280;61560;33.718;73.040;2023-06-10T08:55:15;93445.13;;;41.45;25.63
73332;BME280;61560;33.718;73.040;2023-06-10T08:57:44;93439.28;;;41.43;25.58
73332;BME280;61560;33.718;73.040;2023-06-10T09:00:13;93434.75;;;41.38;25.21
73332;BME280;61560;33.718;73.040;2023-06-10T09:02:40;93426.13;;;41.38;25.71
73332;BME280;61560;33.718;73.040;2023-06-10T09:05:09;93418.03;;;41.34;25.46
73332;BME280;61560;33.718;73.040;2023-06-10T09:07:36;93412.56;;;41.40;24.67
73332;BME280;61560;33.718;73.040;2023-06-10T09:10:07;93415.44;;;41.40;23.69
73332;BME280;61560;33.718;73.040;2023-06-10T09:12:36;93403.50;;;41.30;23.90
73332;BME280;61560;33.718;73.040;2023-06-10T09:15:05;93405.16;;;41.35;24.24
73332;BME280;61560;33.718;73.040;2023-06-10T09:17:32;93403.94;;;41.40;24.59
73332;BME280;61560;33.718;73.040;2023-06-10T09:20:00;93389.97;;;41.33;23.95
73332;BME280;61560;33.718;73.040;2023-06-10T09:22:33;93379.84;;;41.16;24.60
73332;BME280;61560;33.718;73.040;2023-06-10T09:25:08;93369.13;;;41.01;25.43
73332;BME280;61560;33.718;73.040;2023-06-10T09:27:49;93365.59;;;40.87;25.60
73332;BME280;61560;33.718;73.040;2023-06-10T09:30:27;93355.28;;;40.66;25.71
73332;BME280;61560;33.718;73.040;2023-06-10T09:33:00;93358.16;;;40.51;25.57
73332;BME280;61560;33.718;73.040;2023-06-10T09:35:28;93356.59;;;40.34;26.15
73332;BME280;61560;33.718;73.040;2023-06-10T09:37:57;93355.09;;;40.18;26.19
73332;BME280;61560;33.718;73.040;2023-06-10T09:40:25;93348.88;;;40.08;26.36
73332;BME280;61560;33.718;73.040;2023-06-10T09:42:59;93327.66;;;39.99;26.02
73332;BME280;61560;33.718;73.040;2023-06-10T09:45:30;93329.16;;;40.00;26.12
73332;BME280;61560;33.718;73.040;2023-06-10T09:47:58;93330.28;;;39.95;26.62
73332;BME280;61560;33.718;73.040;2023-06-10T09:50:26;93341.38;;;39.87;26.80
73332;BME280;61560;33.718;73.040;2023-06-10T09:52:53;93331.69;;;39.94;27.62
73332;BME280;61560;33.718;73.040;2023-06-10T09:55:20;93331.75;;;40.10;28.90
73332;BME280;61560;33.718;73.040;2023-06-10T09:57:49;93327.44;;;40.24;29.38
73332;BME280;61560;33.718;73.040;2023-06-10T10:00:22;93324.38;;;40.36;29.08
73332;BME280;61560;33.718;73.040;2023-06-10T10:02:51;93314.97;;;40.33;29.51
73332;BME280;61560;33.718;73.040;2023-06-10T10:05:20;93307.72;;;40.32;29.42
73332;BME280;61560;33.718;73.040;2023-06-10T10:07:48;93309.94;;;40.34;29.62
73332;BME280;61560;33.718;73.040;2023-06-10T10:10:16;93308.78;;;40.39;30.06
73332;BME280;61560;33.718;73.040;2023-06-10T10:13:01;93314.97;;;40.33;30.15
73332;BME280;61560;33.718;73.040;2023-06-10T10:15:31;93327.03;;;40.00;30.64
73332;BME280;61560;33.718;73.040;2023-06-10T10:18:14;93335.91;;;39.64;30.90
73332;BME280;61560;33.718;73.040;2023-06-10T10:20:52;93351.75;;;39.38;31.70
73332;BME280;61560;33.718;73.040;2023-06-10T10:23:29;93354.03;;;39.12;32.08
73332;BME280;61560;33.718;73.040;2023-06-10T10:26:00;93353.97;;;38.98;32.56
73332;BME280;61560;33.718;73.040;2023-06-10T10:28:41;93345.50;;;38.87;33.31
73332;BME280;61560;33.718;73.040;2023-06-10T10:31:10;93344.97;;;38.77;32.85
73332;BME280;61560;33.718;73.040;2023-06-10T10:33:59;93349.09;;;38.74;33.46
73332;BME280;61560;33.718;73.040;2023-06-10T10:36:27;93347.91;;;38.65;33.43
73332;BME280;61560;33.718;73.040;2023-06-10T10:38:54;93330.16;;;38.55;33.62
73332;BME280;61560;33.718;73.040;2023-06-10T10:41:23;93335.44;;;38.47;33.52
73332;BME280;61560;33.718;73.040;2023-06-10T10:43:51;93337.75;;;38.37;33.98
73332;BME280;61560;33.718;73.040;2023-06-10T10:46:19;93334.47;;;38.29;33.74
73332;BME280;61560;33.718;73.040;2023-06-10T10:48:49;93329.03;;;38.21;33.60
73332;BME280;61560;33.718;73.040;2023-06-10T10:51:18;93323.06;;;38.17;33.87
73332;BME280;61560;33.718;73.040;2023-06-10T10:54:12;93322.09;;;38.13;34.28
73332;BME280;61560;33.718;73.040;2023-06-10T10:56:39;93328.72;;;38.04;34.54
73332;BME280;61560;33.718;73.040;2023-06-10T10:59:09;93311.34;;;38.00;34.52
73332;BME280;61560;33.718;73.040;2023-06-10T11:01:40;93299.91;;;38.00;34.58
73332;BME280;61560;33.718;73.040;2023-06-10T11:04:08;93303.63;;;38.02;34.34
73332;BME280;61560;33.718;73.040;2023-06-10T11:06:36;93308.09;;;38.05;34.42
73332;BME280;61560;33.718;73.040;2023-06-10T11:09:27;93318.88;;;37.93;34.47
73332;BME280;61560;33.718;73.040;2023-06-10T11:12:01;93319.13;;;37.86;33.79
73332;BME280;61560;33.718;73.040;2023-06-10T11:14:28;93311.47;;;37.77;34.03
73332;BME280;61560;33.718;73.040;2023-06-10T11:16:59;93332.25;;;37.65;34.24
73332;BME280;61560;33.718;73.040;2023-06-10T11:19:37;93347.22;;;37.52;34.56
73332;BME280;61560;33.718;73.040;2023-06-10T11:22:19;93346.38;;;37.50;35.16
73332;BME280;61560;33.718;73.040;2023-06-10T11:24:55;93351.72;;;37.44;34.80
73332;BME280;61560;33.718;73.040;2023-06-10T11:27:25;93359.69;;;37.34;35.82
73332;BME280;61560;33.718;73.040;2023-06-10T11:32:30;93369.41;;;37.17;35.49
73332;BME280;61560;33.718;73.040;2023-06-10T11:34:58;93382.94;;;37.05;35.06
73332;BME280;61560;33.718;73.040;2023-06-10T11:37:25;93381.84;;;36.99;35.46
73332;BME280;61560;33.718;73.040;2023-06-10T11:39:58;93379.34;;;36.93;35.58
73332;BME280;61560;33.718;73.040;2023-06-10T11:42:26;93373.84;;;36.85;35.40
73332;BME280;61560;33.718;73.040;2023-06-10T11:44:53;93381.31;;;36.79;35.41
73332;BME280;61560;33.718;73.040;2023-06-10T11:47:21;93383.91;;;36.75;35.14
73332;BME280;61560;33.718;73.040;2023-06-10T11:49:57;93375.84;;;36.71;35.55
73332;BME280;61560;33.718;73.040;2023-06-10T11:52:32;93377.94;;;36.71;35.07
73332;BME280;61560;33.718;73.040;2023-06-10T11:55:04;93377.06;;;36.68;35.73
73332;BME280;61560;33.718;73.040;2023-06-10T11:57:34;93378.97;;;36.64;35.92
73332;BME280;61560;33.718;73.040;2023-06-10T12:00:06;93374.34;;;36.59;36.86
73332;BME280;61560;33.718;73.040;2023-06-10T12:02:37;93374.72;;;36.53;36.48
73332;BME280;61560;33.718;73.040;2023-06-10T12:05:12;93421.84;;;36.43;30.50
73332;BME280;61560;33.718;73.040;2023-06-10T12:07:39;93412.38;;;35.75;27.56
73332;BME280;61560;33.718;73.040;2023-06-10T12:10:06;93420.50;;;35.26;27.75
73332;BME280;61560;33.718;73.040;2023-06-10T12:12:37;93409.91;;;34.87;27.91
73332;BME280;61560;33.718;73.040;2023-06-10T12:15:05;93433.84;;;34.53;28.57
73332;BME280;61560;33.718;73.040;2023-06-10T12:20:02;93453.22;;;34.16;29.75
73332;BME280;61560;33.718;73.040;2023-06-10T12:22:39;93437.06;;;33.90;30.19
73332;BME280;61560;33.718;73.040;2023-06-10T12:25:09;93423.03;;;33.73;29.63
73332;BME280;61560;33.718;73.040;2023-06-10T12:27:36;93410.31;;;33.55;29.45
73332;BME280;61560;33.718;73.040;2023-06-10T12:30:05;93405.09;;;33.51;30.04
73332;BME280;61560;33.718;73.040;2023-06-10T12:35:04;93389.69;;;33.54;29.34
73332;BME280;61560;33.718;73.040;2023-06-10T12:37:31;93403.75;;;33.62;28.57
73332;BME280;61560;33.718;73.040;2023-06-10T12:40:02;93429.63;;;33.66;28.82
73332;BME280;61560;33.718;73.040;2023-06-10T12:42:30;93440.66;;;33.71;28.41
73332;BME280;61560;33.718;73.040;2023-06-10T12:44:58;93464.56;;;33.68;28.99
73332;BME280;61560;33.718;73.040;2023-06-10T12:47:31;93489.69;;;33.53;29.48
73332;BME280;61560;33.718;73.040;2023-06-10T12:49:59;93485.59;;;33.37;30.57
73332;BME280;61560;33.718;73.040;2023-06-10T12:52:26;93506.03;;;33.26;31.35
73332;BME280;61560;33.718;73.040;2023-06-10T12:54:54;93509.16;;;33.20;31.45
73332;BME280;61560;33.718;73.040;2023-06-10T12:57:22;93510.63;;;33.21;31.54
73332;BME280;61560;33.718;73.040;2023-06-10T12:59:49;93492.69;;;33.09;31.42
73332;BME280;61560;33.718;73.040;2023-06-10T13:02:21;93484.75;;;32.98;31.02
73332;BME280;61560;33.718;73.040;2023-06-10T13:04:50;93465.19;;;33.02;30.56
73332;BME280;61560;33.718;73.040;2023-06-10T13:07:18;93478.47;;;32.99;30.47
73332;BME280;61560;33.718;73.040;2023-06-10T13:09:45;93509.84;;;33.01;29.68